sensor_id;sensor_type;location;lat;lon;timestamp;P1;durP1;ratioP1;P2;durP2;ratioP2
32130;SDS011;18639;50.716;7.086;2022-09-06T00:01:35;3.85;;;1.85;;
32130;SDS011;18639;50.716;7.086;2022-09-06T00:04:01;3.97;;;1.50;;
32130;SDS011;18639;50.716;7.086;2022-09-06T00:06:26;2.63;;;1.52;;
32130;SDS011;18639;50.716;7.086;2022-09-06T00:08:51;2.58;;;1.40;;
32130;SDS011;18639;50.716;7.086;2022-09-06T00:11:17;2.20;;;1.52;;
32130;SDS011;18639;50.716;7.086;2022-09-06T00:13:43;3.45;;;1.40;;
32130;SDS011;18639;50.716;7.086;2022-09-06T00:16:16;4.75;;;1.30;;
32130;SDS011;18639;50.716;7.086;2022-09-06T00:18:43;3.28;;;1.85;;
32130;SDS011;18639;50.716;7.086;2022-09-06T00:21:16;5.20;;;2.25;;
32130;SDS011;18639;50.716;7.086;2022-09-06T00:23:44;7.53;;;2.10;;
32130;SDS011;18639;50.716;7.086;2022-09-06T00:26:09;3.03;;;1.83;;
32130;SDS011;18639;50.716;7.086;2022-09-06T00:28:34;5.15;;;2.00;;
32130;SDS011;18639;50.716;7.086;2022-09-06T00:31:07;5.05;;;1.98;;
32130;SDS011;18639;50.716;7.086;2022-09-06T00:33:43;5.30;;;2.22;;
32130;SDS011;18639;50.716;7.086;2022-09-06T00:36:09;3.88;;;2.17;;
32130;SDS011;18639;50.716;7.086;2022-09-06T00:38:35;5.60;;;1.92;;
32130;SDS011;18639;50.716;7.086;2022-09-06T00:41:01;7.00;;;2.38;;
32130;SDS011;18639;50.716;7.086;2022-09-06T00:43:27;2.97;;;1.98;;
32130;SDS011;18639;50.716;7.086;2022-09-06T00:45:52;4.90;;;2.30;;
32130;SDS011;18639;50.716;7.086;2022-09-06T00:48:18;3.85;;;2.28;;
32130;SDS011;18639;50.716;7.086;2022-09-06T00:50:46;3.30;;;2.35;;
32130;SDS011;18639;50.716;7.086;2022-09-06T00:53:14;5.47;;;2.60;;
32130;SDS011;18639;50.716;7.086;2022-09-06T00:55:40;11.02;;;2.50;;
32130;SDS011;18639;50.716;7.086;2022-09-06T00:58:06;4.70;;;1.70;;
32130;SDS011;18639;50.716;7.086;2022-09-06T01:00:33;3.47;;;1.75;;
32130;SDS011;18639;50.716;7.086;2022-09-06T01:02:58;3.85;;;1.90;;
32130;SDS011;18639;50.716;7.086;2022-09-06T01:05:28;5.72;;;2.40;;
32130;SDS011;18639;50.716;7.086;2022-09-06T01:08:14;3.67;;;2.38;;
32130;SDS011;18639;50.716;7.086;2022-09-06T01:10:55;3.55;;;2.20;;
32130;SDS011;18639;50.716;7.086;2022-09-06T01:20:03;5.60;;;2.10;;
32130;SDS011;18639;50.716;7.086;2022-09-06T01:28:33;4.38;;;2.10;;
32130;SDS011;18639;50.716;7.086;2022-09-06T01:36:50;3.25;;;2.10;;
32130;SDS011;18639;50.716;7.086;2022-09-06T01:39:22;3.92;;;1.95;;
32130;SDS011;18639;50.716;7.086;2022-09-06T01:41:48;5.07;;;2.28;;
32130;SDS011;18639;50.716;7.086;2022-09-06T01:44:14;3.72;;;2.20;;
32130;SDS011;18639;50.716;7.086;2022-09-06T01:46:44;3.10;;;1.90;;
32130;SDS011;18639;50.716;7.086;2022-09-06T02:00:30;8.10;;;2.22;;
32130;SDS011;18639;50.716;7.086;2022-09-06T02:03:15;4.30;;;2.60;;
32130;SDS011;18639;50.716;7.086;2022-09-06T02:05:56;3.80;;;2.17;;
32130;SDS011;18639;50.716;7.086;2022-09-06T02:08:38;4.03;;;2.20;;
32130;SDS011;18639;50.716;7.086;2022-09-06T02:11:07;3.95;;;2.40;;
32130;SDS011;18639;50.716;7.086;2022-09-06T02:13:38;4.22;;;2.13;;
32130;SDS011;18639;50.716;7.086;2022-09-06T02:16:09;4.97;;;2.17;;
32130;SDS011;18639;50.716;7.086;2022-09-06T02:18:39;3.83;;;2.33;;
32130;SDS011;18639;50.716;7.086;2022-09-06T02:21:08;4.47;;;2.50;;
32130;SDS011;18639;50.716;7.086;2022-09-06T02:23:38;4.03;;;2.40;;
32130;SDS011;18639;50.716;7.086;2022-09-06T02:26:17;4.20;;;2.35;;
32130;SDS011;18639;50.716;7.086;2022-09-06T02:28:46;5.00;;;2.50;;
32130;SDS011;18639;50.716;7.086;2022-09-06T02:31:14;4.22;;;2.30;;
32130;SDS011;18639;50.716;7.086;2022-09-06T02:33:43;3.72;;;2.05;;
32130;SDS011;18639;50.716;7.086;2022-09-06T02:36:11;7.70;;;2.65;;
32130;SDS011;18639;50.716;7.086;2022-09-06T02:38:40;4.78;;;2.42;;
32130;SDS011;18639;50.716;7.086;2022-09-06T02:41:06;3.75;;;2.00;;
32130;SDS011;18639;50.716;7.086;2022-09-06T02:43:33;4.32;;;2.30;;
32130;SDS011;18639;50.716;7.086;2022-09-06T02:45:58;4.28;;;2.00;;
32130;SDS011;18639;50.716;7.086;2022-09-06T02:48:23;5.10;;;2.42;;
32130;SDS011;18639;50.716;7.086;2022-09-06T02:50:49;4.10;;;2.35;;
32130;SDS011;18639;50.716;7.086;2022-09-06T02:53:14;4.40;;;2.28;;
32130;SDS011;18639;50.716;7.086;2022-09-06T02:55:40;5.35;;;2.20;;
32130;SDS011;18639;50.716;7.086;2022-09-06T02:58:06;3.78;;;2.20;;
32130;SDS011;18639;50.716;7.086;2022-09-06T03:00:33;3.38;;;2.20;;
32130;SDS011;18639;50.716;7.086;2022-09-06T03:02:59;3.78;;;2.50;;
32130;SDS011;18639;50.716;7.086;2022-09-06T03:05:24;4.53;;;2.13;;
32130;SDS011;18639;50.716;7.086;2022-09-06T03:07:51;6.28;;;2.20;;
32130;SDS011;18639;50.716;7.086;2022-09-06T03:10:16;5.50;;;2.67;;
32130;SDS011;18639;50.716;7.086;2022-09-06T03:12:42;3.50;;;2.20;;
32130;SDS011;18639;50.716;7.086;2022-09-06T03:15:08;3.67;;;2.20;;
32130;SDS011;18639;50.716;7.086;2022-09-06T03:17:35;3.53;;;2.20;;
32130;SDS011;18639;50.716;7.086;2022-09-06T03:20:00;4.30;;;2.20;;
32130;SDS011;18639;50.716;7.086;2022-09-06T03:22:25;4.03;;;2.38;;
32130;SDS011;18639;50.716;7.086;2022-09-06T03:24:51;4.00;;;2.22;;
32130;SDS011;18639;50.716;7.086;2022-09-06T03:27:16;3.10;;;1.88;;
32130;SDS011;18639;50.716;7.086;2022-09-06T03:29:41;2.88;;;2.00;;
32130;SDS011;18639;50.716;7.086;2022-09-06T03:32:07;4.05;;;2.17;;
32130;SDS011;18639;50.716;7.086;2022-09-06T03:34:32;5.57;;;2.08;;
32130;SDS011;18639;50.716;7.086;2022-09-06T03:36:57;6.78;;;2.53;;
32130;SDS011;18639;50.716;7.086;2022-09-06T03:39:22;7.60;;;2.20;;
32130;SDS011;18639;50.716;7.086;2022-09-06T03:41:48;2.78;;;1.90;;
32130;SDS011;18639;50.716;7.086;2022-09-06T03:44:13;2.90;;;1.95;;
32130;SDS011;18639;50.716;7.086;2022-09-06T03:46:38;3.58;;;2.10;;
32130;SDS011;18639;50.716;7.086;2022-09-06T03:49:04;3.53;;;2.10;;
32130;SDS011;18639;50.716;7.086;2022-09-06T03:51:29;6.40;;;2.42;;
32130;SDS011;18639;50.716;7.086;2022-09-06T03:53:54;3.25;;;2.10;;
32130;SDS011;18639;50.716;7.086;2022-09-06T03:56:20;3.28;;;2.13;;
32130;SDS011;18639;50.716;7.086;2022-09-06T03:58:45;6.10;;;2.20;;
32130;SDS011;18639;50.716;7.086;2022-09-06T04:01:11;4.68;;;1.85;;
32130;SDS011;18639;50.716;7.086;2022-09-06T04:03:37;4.32;;;2.00;;
32130;SDS011;18639;50.716;7.086;2022-09-06T04:06:02;4.30;;;2.42;;
32130;SDS011;18639;50.716;7.086;2022-09-06T04:08:28;4.05;;;2.20;;
32130;SDS011;18639;50.716;7.086;2022-09-06T04:10:54;3.60;;;2.20;;
32130;SDS011;18639;50.716;7.086;2022-09-06T04:13:21;6.00;;;2.17;;
32130;SDS011;18639;50.716;7.086;2022-09-06T04:15:48;2.92;;;2.00;;
32130;SDS011;18639;50.716;7.086;2022-09-06T04:18:14;3.58;;;2.10;;
32130;SDS011;18639;50.716;7.086;2022-09-06T04:20:40;3.15;;;2.10;;
32130;SDS011;18639;50.716;7.086;2022-09-06T04:23:06;4.88;;;2.15;;
32130;SDS011;18639;50.716;7.086;2022-09-06T04:25:31;4.32;;;2.38;;
32130;SDS011;18639;50.716;7.086;2022-09-06T04:27:57;4.55;;;2.28;;
32130;SDS011;18639;50.716;7.086;2022-09-06T04:30:22;4.40;;;2.13;;
32130;SDS011;18639;50.716;7.086;2022-09-06T04:32:47;3.95;;;2.33;;
32130;SDS011;18639;50.716;7.086;2022-09-06T04:35:13;4.95;;;2.05;;
32130;SDS011;18639;50.716;7.086;2022-09-06T04:37:38;4.80;;;2.10;;
32130;SDS011;18639;50.716;7.086;2022-09-06T04:40:04;5.55;;;2.20;;
32130;SDS011;18639;50.716;7.086;2022-09-06T04:42:29;3.20;;;1.88;;
32130;SDS011;18639;50.716;7.086;2022-09-06T04:44:55;3.28;;;1.95;;
32130;SDS011;18639;50.716;7.086;2022-09-06T04:47:20;4.32;;;2.35;;
32130;SDS011;18639;50.716;7.086;2022-09-06T04:49:45;9.52;;;2.35;;
32130;SDS011;18639;50.716;7.086;2022-09-06T04:52:13;3.05;;;2.10;;
32130;SDS011;18639;50.716;7.086;2022-09-06T04:54:39;4.80;;;2.42;;
32130;SDS011;18639;50.716;7.086;2022-09-06T04:57:04;8.90;;;2.58;;
32130;SDS011;18639;50.716;7.086;2022-09-06T04:59:29;3.40;;;2.20;;
32130;SDS011;18639;50.716;7.086;2022-09-06T05:01:55;4.55;;;2.28;;
32130;SDS011;18639;50.716;7.086;2022-09-06T05:04:20;6.88;;;2.10;;
32130;SDS011;18639;50.716;7.086;2022-09-06T05:06:45;3.95;;;2.40;;
32130;SDS011;18639;50.716;7.086;2022-09-06T05:09:11;5.32;;;2.35;;
32130;SDS011;18639;50.716;7.086;2022-09-06T05:11:36;3.85;;;2.35;;
32130;SDS011;18639;50.716;7.086;2022-09-06T05:14:01;6.63;;;2.30;;
32130;SDS011;18639;50.716;7.086;2022-09-06T05:16:27;3.90;;;2.40;;
32130;SDS011;18639;50.716;7.086;2022-09-06T05:18:52;2.63;;;1.95;;
32130;SDS011;18639;50.716;7.086;2022-09-06T05:21:17;3.92;;;2.20;;
32130;SDS011;18639;50.716;7.086;2022-09-06T05:23:43;3.38;;;2.17;;
32130;SDS011;18639;50.716;7.086;2022-09-06T05:26:09;4.05;;;1.98;;
32130;SDS011;18639;50.716;7.086;2022-09-06T05:28:35;3.40;;;2.42;;
32130;SDS011;18639;50.716;7.086;2022-09-06T05:31:07;3.67;;;2.50;;
32130;SDS011;18639;50.716;7.086;2022-09-06T05:33:34;7.78;;;2.70;;
32130;SDS011;18639;50.716;7.086;2022-09-06T05:35:59;6.30;;;2.50;;
32130;SDS011;18639;50.716;7.086;2022-09-06T05:38:25;4.45;;;2.33;;
32130;SDS011;18639;50.716;7.086;2022-09-06T05:40:50;6.07;;;2.45;;
32130;SDS011;18639;50.716;7.086;2022-09-06T05:43:15;4.60;;;2.55;;
32130;SDS011;18639;50.716;7.086;2022-09-06T05:45:41;3.88;;;2.25;;
32130;SDS011;18639;50.716;7.086;2022-09-06T05:48:06;3.65;;;2.35;;
32130;SDS011;18639;50.716;7.086;2022-09-06T05:50:32;4.25;;;2.10;;
32130;SDS011;18639;50.716;7.086;2022-09-06T05:52:58;3.80;;;2.10;;
32130;SDS011;18639;50.716;7.086;2022-09-06T05:55:23;3.65;;;2.22;;
32130;SDS011;18639;50.716;7.086;2022-09-06T05:57:48;4.68;;;2.58;;
32130;SDS011;18639;50.716;7.086;2022-09-06T06:00:13;3.78;;;2.50;;
32130;SDS011;18639;50.716;7.086;2022-09-06T06:02:39;4.82;;;2.65;;
32130;SDS011;18639;50.716;7.086;2022-09-06T06:05:04;8.02;;;2.42;;
32130;SDS011;18639;50.716;7.086;2022-09-06T06:07:30;6.55;;;2.30;;
32130;SDS011;18639;50.716;7.086;2022-09-06T06:09:56;6.80;;;3.55;;
32130;SDS011;18639;50.716;7.086;2022-09-06T06:12:21;5.28;;;2.60;;
32130;SDS011;18639;50.716;7.086;2022-09-06T06:14:46;3.78;;;2.17;;
32130;SDS011;18639;50.716;7.086;2022-09-06T06:17:11;3.05;;;2.40;;
32130;SDS011;18639;50.716;7.086;2022-09-06T06:19:37;5.10;;;2.47;;
32130;SDS011;18639;50.716;7.086;2022-09-06T06:22:02;4.13;;;2.35;;
32130;SDS011;18639;50.716;7.086;2022-09-06T06:24:27;5.28;;;2.50;;
32130;SDS011;18639;50.716;7.086;2022-09-06T06:26:53;4.97;;;2.40;;
32130;SDS011;18639;50.716;7.086;2022-09-06T06:29:18;4.68;;;2.63;;
32130;SDS011;18639;50.716;7.086;2022-09-06T06:31:43;6.18;;;2.80;;
32130;SDS011;18639;50.716;7.086;2022-09-06T06:34:08;9.38;;;3.40;;
32130;SDS011;18639;50.716;7.086;2022-09-06T06:36:35;5.15;;;2.92;;
32130;SDS011;18639;50.716;7.086;2022-09-06T06:39:02;8.73;;;3.50;;
32130;SDS011;18639;50.716;7.086;2022-09-06T06:41:29;5.90;;;3.20;;
32130;SDS011;18639;50.716;7.086;2022-09-06T06:43:57;5.57;;;2.88;;
32130;SDS011;18639;50.716;7.086;2022-09-06T06:46:24;7.57;;;2.50;;
32130;SDS011;18639;50.716;7.086;2022-09-06T06:48:51;4.72;;;2.10;;
32130;SDS011;18639;50.716;7.086;2022-09-06T06:51:18;5.97;;;2.10;;
32130;SDS011;18639;50.716;7.086;2022-09-06T06:53:44;3.70;;;2.13;;
32130;SDS011;18639;50.716;7.086;2022-09-06T06:56:53;4.70;;;1.98;;
32130;SDS011;18639;50.716;7.086;2022-09-06T06:59:01;2.45;;;1.45;;
32130;SDS011;18639;50.716;7.086;2022-09-06T07:01:29;3.85;;;1.60;;
32130;SDS011;18639;50.716;7.086;2022-09-06T07:03:55;3.08;;;1.60;;
32130;SDS011;18639;50.716;7.086;2022-09-06T07:06:21;2.88;;;1.60;;
32130;SDS011;18639;50.716;7.086;2022-09-06T07:08:47;4.93;;;1.80;;
32130;SDS011;18639;50.716;7.086;2022-09-06T07:11:13;2.17;;;1.38;;
32130;SDS011;18639;50.716;7.086;2022-09-06T07:13:40;2.40;;;1.40;;
32130;SDS011;18639;50.716;7.086;2022-09-06T07:18:39;2.80;;;1.60;;
32130;SDS011;18639;50.716;7.086;2022-09-06T07:21:16;1.73;;;1.35;;
32130;SDS011;18639;50.716;7.086;2022-09-06T07:23:44;2.38;;;1.55;;
32130;SDS011;18639;50.716;7.086;2022-09-06T07:26:15;2.60;;;1.42;;
32130;SDS011;18639;50.716;7.086;2022-09-06T07:28:42;3.03;;;1.33;;
32130;SDS011;18639;50.716;7.086;2022-09-06T07:31:07;5.57;;;1.33;;
32130;SDS011;18639;50.716;7.086;2022-09-06T07:33:33;3.95;;;1.60;;
32130;SDS011;18639;50.716;7.086;2022-09-06T07:36:00;3.88;;;1.35;;
32130;SDS011;18639;50.716;7.086;2022-09-06T07:38:27;2.22;;;1.33;;
32130;SDS011;18639;50.716;7.086;2022-09-06T07:40:54;6.38;;;2.30;;
32130;SDS011;18639;50.716;7.086;2022-09-06T07:43:21;4.13;;;1.80;;
32130;SDS011;18639;50.716;7.086;2022-09-06T07:45:47;2.00;;;1.42;;
32130;SDS011;18639;50.716;7.086;2022-09-06T07:48:13;6.20;;;2.22;;
32130;SDS011;18639;50.716;7.086;2022-09-06T07:50:39;3.03;;;1.30;;
32130;SDS011;18639;50.716;7.086;2022-09-06T07:53:04;2.33;;;1.30;;
32130;SDS011;18639;50.716;7.086;2022-09-06T07:55:30;2.28;;;1.15;;
32130;SDS011;18639;50.716;7.086;2022-09-06T07:57:55;2.67;;;1.20;;
32130;SDS011;18639;50.716;7.086;2022-09-06T08:00:21;1.98;;;1.20;;
32130;SDS011;18639;50.716;7.086;2022-09-06T08:02:46;2.80;;;1.10;;
32130;SDS011;18639;50.716;7.086;2022-09-06T08:05:11;1.55;;;1.10;;
32130;SDS011;18639;50.716;7.086;2022-09-06T08:07:36;3.17;;;1.17;;
32130;SDS011;18639;50.716;7.086;2022-09-06T08:10:02;2.38;;;1.00;;
32130;SDS011;18639;50.716;7.086;2022-09-06T08:12:28;1.67;;;1.00;;
32130;SDS011;18639;50.716;7.086;2022-09-06T08:14:53;2.22;;;0.82;;
32130;SDS011;18639;50.716;7.086;2022-09-06T08:17:19;1.35;;;0.90;;
32130;SDS011;18639;50.716;7.086;2022-09-06T08:19:44;1.58;;;0.98;;
32130;SDS011;18639;50.716;7.086;2022-09-06T08:22:09;3.55;;;0.95;;
32130;SDS011;18639;50.716;7.086;2022-09-06T08:24:34;3.55;;;1.30;;
32130;SDS011;18639;50.716;7.086;2022-09-06T08:27:00;2.05;;;1.27;;
32130;SDS011;18639;50.716;7.086;2022-09-06T08:29:26;1.70;;;1.02;;
32130;SDS011;18639;50.716;7.086;2022-09-06T08:31:52;4.55;;;0.85;;
32130;SDS011;18639;50.716;7.086;2022-09-06T08:34:17;1.15;;;1.00;;
32130;SDS011;18639;50.716;7.086;2022-09-06T08:36:42;5.65;;;1.10;;
32130;SDS011;18639;50.716;7.086;2022-09-06T08:39:09;4.15;;;1.27;;
32130;SDS011;18639;50.716;7.086;2022-09-06T08:44:25;1.33;;;0.90;;
32130;SDS011;18639;50.716;7.086;2022-09-06T08:46:59;1.40;;;1.00;;
32130;SDS011;18639;50.716;7.086;2022-09-06T08:49:34;1.60;;;0.90;;
32130;SDS011;18639;50.716;7.086;2022-09-06T09:00:10;1.88;;;1.15;;
32130;SDS011;18639;50.716;7.086;2022-09-06T09:02:48;0.98;;;0.82;;
32130;SDS011;18639;50.716;7.086;2022-09-06T09:07:57;3.22;;;1.42;;
32130;SDS011;18639;50.716;7.086;2022-09-06T09:10:28;2.38;;;1.10;;
32130;SDS011;18639;50.716;7.086;2022-09-06T09:12:56;1.13;;;0.88;;
32130;SDS011;18639;50.716;7.086;2022-09-06T09:15:24;1.38;;;0.90;;
32130;SDS011;18639;50.716;7.086;2022-09-06T09:17:50;1.35;;;0.80;;
32130;SDS011;18639;50.716;7.086;2022-09-06T09:20:17;3.10;;;0.90;;
32130;SDS011;18639;50.716;7.086;2022-09-06T09:22:42;1.48;;;1.00;;
32130;SDS011;18639;50.716;7.086;2022-09-06T09:25:11;3.05;;;1.05;;
32130;SDS011;18639;50.716;7.086;2022-09-06T09:27:41;1.98;;;1.10;;
32130;SDS011;18639;50.716;7.086;2022-09-06T09:30:09;2.67;;;0.90;;
32130;SDS011;18639;50.716;7.086;2022-09-06T09:32:36;0.90;;;0.80;;
32130;SDS011;18639;50.716;7.086;2022-09-06T09:35:22;2.03;;;1.05;;
32130;SDS011;18639;50.716;7.086;2022-09-06T09:37:55;3.47;;;1.63;;
32130;SDS011;18639;50.716;7.086;2022-09-06T09:40:32;1.52;;;0.90;;
32130;SDS011;18639;50.716;7.086;2022-09-06T09:46:45;4.60;;;1.15;;
32130;SDS011;18639;50.716;7.086;2022-09-06T09:49:05;2.90;;;0.98;;
32130;SDS011;18639;50.716;7.086;2022-09-06T09:54:03;1.88;;;0.95;;
32130;SDS011;18639;50.716;7.086;2022-09-06T09:56:41;1.42;;;0.88;;
32130;SDS011;18639;50.716;7.086;2022-09-06T09:59:16;3.58;;;1.00;;
32130;SDS011;18639;50.716;7.086;2022-09-06T10:01:42;1.67;;;1.10;;
32130;SDS011;18639;50.716;7.086;2022-09-06T10:04:09;2.33;;;1.17;;
32130;SDS011;18639;50.716;7.086;2022-09-06T10:06:36;3.83;;;1.10;;
32130;SDS011;18639;50.716;7.086;2022-09-06T10:09:12;3.67;;;1.10;;
32130;SDS011;18639;50.716;7.086;2022-09-06T10:12:01;1.40;;;1.00;;
32130;SDS011;18639;50.716;7.086;2022-09-06T10:14:44;2.55;;;0.85;;
32130;SDS011;18639;50.716;7.086;2022-09-06T10:20:13;4.25;;;1.25;;
32130;SDS011;18639;50.716;7.086;2022-09-06T10:22:50;1.83;;;1.02;;
32130;SDS011;18639;50.716;7.086;2022-09-06T10:42:20;1.88;;;1.17;;
32130;SDS011;18639;50.716;7.086;2022-09-06T10:50:11;5.57;;;1.10;;
32130;SDS011;18639;50.716;7.086;2022-09-06T10:52:39;1.65;;;1.15;;
32130;SDS011;18639;50.716;7.086;2022-09-06T10:55:10;1.52;;;1.00;;
32130;SDS011;18639;50.716;7.086;2022-09-06T10:57:58;2.42;;;1.20;;
32130;SDS011;18639;50.716;7.086;2022-09-06T11:00:28;1.85;;;1.00;;
32130;SDS011;18639;50.716;7.086;2022-09-06T11:03:02;2.40;;;1.25;;
32130;SDS011;18639;50.716;7.086;2022-09-06T11:05:43;2.08;;;1.33;;
32130;SDS011;18639;50.716;7.086;2022-09-06T11:08:21;2.65;;;1.45;;
32130;SDS011;18639;50.716;7.086;2022-09-06T11:10:48;2.38;;;1.30;;
32130;SDS011;18639;50.716;7.086;2022-09-06T11:13:17;2.72;;;1.20;;
32130;SDS011;18639;50.716;7.086;2022-09-06T11:18:32;1.35;;;1.10;;
32130;SDS011;18639;50.716;7.086;2022-09-06T11:29:09;2.17;;;1.20;;
32130;SDS011;18639;50.716;7.086;2022-09-06T11:31:50;2.78;;;1.20;;
32130;SDS011;18639;50.716;7.086;2022-09-06T11:34:18;1.60;;;1.10;;
32130;SDS011;18639;50.716;7.086;2022-09-06T11:36:45;5.68;;;1.30;;
32130;SDS011;18639;50.716;7.086;2022-09-06T11:39:12;3.95;;;1.27;;
32130;SDS011;18639;50.716;7.086;2022-09-06T11:41:47;3.10;;;1.20;;
32130;SDS011;18639;50.716;7.086;2022-09-06T11:44:19;1.23;;;1.10;;
32130;SDS011;18639;50.716;7.086;2022-09-06T11:50:19;2.05;;;1.10;;
32130;SDS011;18639;50.716;7.086;2022-09-06T11:55:39;2.83;;;1.27;;
32130;SDS011;18639;50.716;7.086;2022-09-06T12:00:46;2.53;;;1.13;;
32130;SDS011;18639;50.716;7.086;2022-09-06T12:08:49;2.60;;;1.38;;
32130;SDS011;18639;50.716;7.086;2022-09-06T12:11:25;1.42;;;1.30;;
32130;SDS011;18639;50.716;7.086;2022-09-06T12:13:52;6.03;;;1.40;;
32130;SDS011;18639;50.716;7.086;2022-09-06T12:16:24;4.90;;;1.60;;
32130;SDS011;18639;50.716;7.086;2022-09-06T12:25:03;4.53;;;1.33;;
32130;SDS011;18639;50.716;7.086;2022-09-06T12:28:01;4.40;;;1.40;;
32130;SDS011;18639;50.716;7.086;2022-09-06T12:33:06;7.75;;;1.35;;
32130;SDS011;18639;50.716;7.086;2022-09-06T12:35:37;1.92;;;1.40;;
32130;SDS011;18639;50.716;7.086;2022-09-06T12:38:04;3.50;;;1.23;;
32130;SDS011;18639;50.716;7.086;2022-09-06T12:40:31;3.25;;;1.50;;
32130;SDS011;18639;50.716;7.086;2022-09-06T12:43:00;2.67;;;1.20;;
32130;SDS011;18639;50.716;7.086;2022-09-06T12:45:27;2.17;;;1.38;;
32130;SDS011;18639;50.716;7.086;2022-09-06T12:48:10;3.63;;;1.40;;
32130;SDS011;18639;50.716;7.086;2022-09-06T12:50:37;3.60;;;1.42;;
32130;SDS011;18639;50.716;7.086;2022-09-06T12:53:06;20.25;;;1.70;;
32130;SDS011;18639;50.716;7.086;2022-09-06T12:55:42;4.18;;;1.30;;
32130;SDS011;18639;50.716;7.086;2022-09-06T12:58:08;2.35;;;1.33;;
32130;SDS011;18639;50.716;7.086;2022-09-06T13:00:40;2.25;;;1.13;;
32130;SDS011;18639;50.716;7.086;2022-09-06T13:03:25;1.80;;;1.20;;
32130;SDS011;18639;50.716;7.086;2022-09-06T13:05:55;4.53;;;1.30;;
32130;SDS011;18639;50.716;7.086;2022-09-06T13:08:31;3.88;;;1.27;;
32130;SDS011;18639;50.716;7.086;2022-09-06T13:10:57;3.80;;;1.23;;
32130;SDS011;18639;50.716;7.086;2022-09-06T13:13:23;4.03;;;1.15;;
32130;SDS011;18639;50.716;7.086;2022-09-06T13:15:50;6.13;;;1.83;;
32130;SDS011;18639;50.716;7.086;2022-09-06T13:18:21;2.40;;;1.55;;
32130;SDS011;18639;50.716;7.086;2022-09-06T13:21:00;2.72;;;1.40;;
32130;SDS011;18639;50.716;7.086;2022-09-06T13:23:27;2.53;;;1.60;;
32130;SDS011;18639;50.716;7.086;2022-09-06T13:25:53;2.67;;;1.40;;
32130;SDS011;18639;50.716;7.086;2022-09-06T13:28:25;3.17;;;1.45;;
32130;SDS011;18639;50.716;7.086;2022-09-06T13:33:44;3.53;;;1.50;;
32130;SDS011;18639;50.716;7.086;2022-09-06T13:36:29;4.28;;;1.20;;
32130;SDS011;18639;50.716;7.086;2022-09-06T13:38:56;2.78;;;1.67;;
32130;SDS011;18639;50.716;7.086;2022-09-06T13:43:55;3.87;;;1.33;;
32130;SDS011;18639;50.716;7.086;2022-09-06T13:46:53;4.07;;;1.27;;
32130;SDS011;18639;50.716;7.086;2022-09-06T13:49:19;2.20;;;1.25;;
32130;SDS011;18639;50.716;7.086;2022-09-06T13:51:47;6.03;;;1.33;;
32130;SDS011;18639;50.716;7.086;2022-09-06T13:54:12;3.22;;;1.40;;
32130;SDS011;18639;50.716;7.086;2022-09-06T13:56:38;3.67;;;1.45;;
32130;SDS011;18639;50.716;7.086;2022-09-06T13:59:05;2.17;;;1.60;;
32130;SDS011;18639;50.716;7.086;2022-09-06T14:01:33;7.22;;;1.48;;
32130;SDS011;18639;50.716;7.086;2022-09-06T14:03:59;5.07;;;1.42;;
32130;SDS011;18639;50.716;7.086;2022-09-06T14:06:24;2.90;;;1.17;;
32130;SDS011;18639;50.716;7.086;2022-09-06T14:08:49;5.00;;;1.30;;
32130;SDS011;18639;50.716;7.086;2022-09-06T14:11:15;2.35;;;1.20;;
32130;SDS011;18639;50.716;7.086;2022-09-06T14:13:40;2.33;;;1.23;;
32130;SDS011;18639;50.716;7.086;2022-09-06T14:16:06;3.92;;;1.23;;
32130;SDS011;18639;50.716;7.086;2022-09-06T14:18:31;5.03;;;1.30;;
32130;SDS011;18639;50.716;7.086;2022-09-06T14:20:56;4.20;;;1.33;;
32130;SDS011;18639;50.716;7.086;2022-09-06T14:23:23;2.30;;;1.20;;
32130;SDS011;18639;50.716;7.086;2022-09-06T14:25:53;2.78;;;1.25;;
32130;SDS011;18639;50.716;7.086;2022-09-06T14:28:19;3.53;;;1.30;;
32130;SDS011;18639;50.716;7.086;2022-09-06T14:30:45;2.03;;;1.30;;
32130;SDS011;18639;50.716;7.086;2022-09-06T14:33:10;2.72;;;1.40;;
32130;SDS011;18639;50.716;7.086;2022-09-06T14:35:35;3.05;;;1.42;;
32130;SDS011;18639;50.716;7.086;2022-09-06T14:38:01;4.40;;;1.10;;
32130;SDS011;18639;50.716;7.086;2022-09-06T14:40:26;5.22;;;1.40;;
32130;SDS011;18639;50.716;7.086;2022-09-06T14:42:52;1.83;;;1.23;;
32130;SDS011;18639;50.716;7.086;2022-09-06T14:45:17;3.17;;;1.48;;
32130;SDS011;18639;50.716;7.086;2022-09-06T14:47:43;3.17;;;1.38;;
32130;SDS011;18639;50.716;7.086;2022-09-06T14:50:09;6.85;;;1.65;;
32130;SDS011;18639;50.716;7.086;2022-09-06T14:52:34;2.90;;;1.00;;
32130;SDS011;18639;50.716;7.086;2022-09-06T14:54:59;3.30;;;1.30;;
32130;SDS011;18639;50.716;7.086;2022-09-06T14:57:25;2.35;;;1.33;;
32130;SDS011;18639;50.716;7.086;2022-09-06T14:59:50;2.55;;;1.20;;
32130;SDS011;18639;50.716;7.086;2022-09-06T15:02:16;6.68;;;1.73;;
32130;SDS011;18639;50.716;7.086;2022-09-06T15:04:41;3.00;;;1.50;;
32130;SDS011;18639;50.716;7.086;2022-09-06T15:07:06;3.35;;;1.40;;
32130;SDS011;18639;50.716;7.086;2022-09-06T15:09:34;1.98;;;1.20;;
32130;SDS011;18639;50.716;7.086;2022-09-06T15:11:59;4.88;;;1.17;;
32130;SDS011;18639;50.716;7.086;2022-09-06T15:14:25;1.50;;;1.10;;
32130;SDS011;18639;50.716;7.086;2022-09-06T15:16:53;1.90;;;1.20;;
32130;SDS011;18639;50.716;7.086;2022-09-06T15:19:22;6.57;;;1.30;;
32130;SDS011;18639;50.716;7.086;2022-09-06T15:21:48;3.33;;;1.30;;
32130;SDS011;18639;50.716;7.086;2022-09-06T15:24:14;4.97;;;1.98;;
32130;SDS011;18639;50.716;7.086;2022-09-06T15:26:42;3.83;;;1.60;;
32130;SDS011;18639;50.716;7.086;2022-09-06T15:29:08;2.20;;;1.30;;
32130;SDS011;18639;50.716;7.086;2022-09-06T15:31:35;1.73;;;1.20;;
32130;SDS011;18639;50.716;7.086;2022-09-06T15:34:02;3.13;;;1.30;;
32130;SDS011;18639;50.716;7.086;2022-09-06T15:36:28;1.95;;;1.20;;
32130;SDS011;18639;50.716;7.086;2022-09-06T15:38:54;4.85;;;1.20;;
32130;SDS011;18639;50.716;7.086;2022-09-06T15:41:24;1.88;;;1.33;;
32130;SDS011;18639;50.716;7.086;2022-09-06T15:44:01;3.10;;;1.20;;
32130;SDS011;18639;50.716;7.086;2022-09-06T15:48:59;2.85;;;1.38;;
32130;SDS011;18639;50.716;7.086;2022-09-06T15:51:26;3.55;;;1.60;;
32130;SDS011;18639;50.716;7.086;2022-09-06T15:53:52;2.08;;;1.38;;
32130;SDS011;18639;50.716;7.086;2022-09-06T15:56:18;2.17;;;1.10;;
32130;SDS011;18639;50.716;7.086;2022-09-06T15:58:44;4.10;;;1.63;;
32130;SDS011;18639;50.716;7.086;2022-09-06T16:01:11;2.65;;;1.30;;
32130;SDS011;18639;50.716;7.086;2022-09-06T16:03:37;3.10;;;1.25;;
32130;SDS011;18639;50.716;7.086;2022-09-06T16:06:07;2.70;;;1.65;;
32130;SDS011;18639;50.716;7.086;2022-09-06T16:08:36;1.50;;;1.00;;
32130;SDS011;18639;50.716;7.086;2022-09-06T16:11:08;4.60;;;1.23;;
32130;SDS011;18639;50.716;7.086;2022-09-06T16:13:36;6.60;;;1.20;;
32130;SDS011;18639;50.716;7.086;2022-09-06T16:16:03;1.80;;;1.20;;
32130;SDS011;18639;50.716;7.086;2022-09-06T16:18:31;3.03;;;1.30;;
32130;SDS011;18639;50.716;7.086;2022-09-06T16:21:19;1.75;;;1.13;;
32130;SDS011;18639;50.716;7.086;2022-09-06T16:23:51;2.90;;;1.65;;
32130;SDS011;18639;50.716;7.086;2022-09-06T16:26:22;4.35;;;1.30;;
32130;SDS011;18639;50.716;7.086;2022-09-06T16:28:49;4.55;;;1.42;;
32130;SDS011;18639;50.716;7.086;2022-09-06T16:31:15;3.40;;;1.45;;
32130;SDS011;18639;50.716;7.086;2022-09-06T16:33:41;2.75;;;1.50;;
32130;SDS011;18639;50.716;7.086;2022-09-06T16:36:09;5.43;;;1.20;;
32130;SDS011;18639;50.716;7.086;2022-09-06T16:38:34;2.78;;;1.23;;
32130;SDS011;18639;50.716;7.086;2022-09-06T16:41:06;5.60;;;1.35;;
32130;SDS011;18639;50.716;7.086;2022-09-06T16:43:34;4.63;;;1.45;;
32130;SDS011;18639;50.716;7.086;2022-09-06T16:46:00;1.60;;;1.20;;
32130;SDS011;18639;50.716;7.086;2022-09-06T16:48:28;5.15;;;1.50;;
32130;SDS011;18639;50.716;7.086;2022-09-06T16:50:54;1.85;;;1.25;;
32130;SDS011;18639;50.716;7.086;2022-09-06T16:53:19;1.85;;;1.40;;